createdAt,value
2019-05-19T00:00:53.014Z,9.73
2019-05-19T00:03:23.121Z,10.27
2019-05-19T00:05:53.300Z,9.90
2019-05-19T00:08:23.496Z,10.90
2019-05-19T00:10:53.702Z,9.40
2019-05-19T00:13:23.794Z,9.23
2019-05-19T00:15:53.947Z,11.90
2019-05-19T00:18:24.067Z,9.93
2019-05-19T00:20:54.169Z,10.33
2019-05-19T00:23:24.271Z,12.97
2019-05-19T00:25:54.307Z,9.27
2019-05-19T00:28:24.395Z,9.50
2019-05-19T00:30:54.576Z,9.97
2019-05-19T00:33:24.693Z,10.87
2019-05-19T00:35:54.867Z,10.90
2019-05-19T00:38:24.939Z,10.27
2019-05-19T00:40:54.899Z,11.33
2019-05-19T00:43:25.085Z,8.83
2019-05-19T00:45:55.307Z,10.33
2019-05-19T00:48:25.585Z,9.50
2019-05-19T00:50:55.795Z,10.10
2019-05-19T00:53:25.987Z,10.80
2019-05-19T00:55:57.170Z,13.17
2019-05-19T00:58:28.517Z,11.17
2019-05-19T01:00:58.762Z,8.90
2019-05-19T01:03:28.898Z,11.70
2019-05-19T01:05:59.108Z,9.57
2019-05-19T01:08:29.285Z,10.93
2019-05-19T01:10:59.513Z,10.10
2019-05-19T01:13:29.533Z,8.80
2019-05-19T01:15:59.713Z,10.03
2019-05-19T01:18:29.871Z,9.87
2019-05-19T01:21:00.114Z,9.67
2019-05-19T01:23:30.151Z,8.33
2019-05-19T01:26:00.245Z,9.03
2019-05-19T01:28:30.445Z,10.60
2019-05-19T01:31:00.488Z,12.40
2019-05-19T01:33:31.245Z,13.07
2019-05-19T01:36:01.335Z,11.90
2019-05-19T01:38:31.440Z,12.80
2019-05-19T01:41:01.615Z,10.30
2019-05-19T01:43:31.702Z,10.73
2019-05-19T01:46:01.899Z,9.97
2019-05-19T01:48:32.187Z,11.53
2019-05-19T01:51:02.536Z,11.60
2019-05-19T01:53:32.745Z,12.93
2019-05-19T01:56:02.997Z,12.37
2019-05-19T01:58:33.363Z,10.73
2019-05-19T02:01:03.742Z,13.27
2019-05-19T02:03:34.075Z,12.27
2019-05-19T02:06:04.415Z,12.90
2019-05-19T02:08:34.690Z,14.10
2019-05-19T02:11:05.040Z,12.87
2019-05-19T02:13:35.320Z,12.93
2019-05-19T02:16:05.659Z,14.33
2019-05-19T02:18:35.946Z,12.67
2019-05-19T02:21:06.438Z,13.47
2019-05-19T02:23:36.775Z,11.07
2019-05-19T02:26:07.403Z,11.47
2019-05-19T02:28:37.659Z,11.20
2019-05-19T02:31:07.937Z,11.77
2019-05-19T02:33:38.243Z,16.30
2019-05-19T02:36:08.514Z,11.60
2019-05-19T02:38:38.724Z,17.77
2019-05-19T02:41:12.621Z,9.80
2019-05-19T02:43:43.571Z,10.03
2019-05-19T02:46:15.883Z,10.10
2019-05-19T02:48:47.680Z,9.57
2019-05-19T02:51:21.032Z,12.13
2019-05-19T02:53:52.108Z,10.63
2019-05-19T02:56:23.509Z,11.57
2019-05-19T02:58:55.706Z,12.10
2019-05-19T03:01:26.004Z,14.93
2019-05-19T03:03:56.256Z,13.83
2019-05-19T03:06:26.648Z,11.10
2019-05-19T03:08:56.929Z,12.20
2019-05-19T03:11:27.466Z,13.67
2019-05-19T03:13:57.753Z,13.00
2019-05-19T03:16:28.122Z,12.80
2019-05-19T03:18:58.405Z,13.57
2019-05-19T03:21:28.635Z,11.97
2019-05-19T03:23:59.002Z,13.27
2019-05-19T03:26:29.356Z,10.97
2019-05-19T03:28:59.683Z,11.10
2019-05-19T03:31:39.748Z,9.50
2019-05-19T03:34:10.108Z,10.57
2019-05-19T03:36:40.392Z,11.87
2019-05-19T03:39:10.692Z,11.33
2019-05-19T03:41:41.083Z,13.07
2019-05-19T03:44:11.498Z,12.20
2019-05-19T03:46:42.159Z,11.30
2019-05-19T03:49:12.472Z,13.30
2019-05-19T03:51:42.710Z,13.73
2019-05-19T03:54:12.951Z,12.83
2019-05-19T03:56:43.388Z,12.13
2019-05-19T03:59:13.740Z,17.20
2019-05-19T04:01:44.123Z,12.13
2019-05-19T04:04:14.390Z,13.67
2019-05-19T04:06:44.569Z,12.87
2019-05-19T04:09:17.365Z,10.90
2019-05-19T04:11:46.494Z,10.60
2019-05-19T04:14:16.575Z,15.73
2019-05-19T04:16:50.113Z,12.37
2019-05-19T04:19:20.204Z,13.50
2019-05-19T04:21:50.439Z,14.60
2019-05-19T04:24:20.546Z,15.20
2019-05-19T04:26:50.593Z,19.83
2019-05-19T04:29:20.680Z,17.90
2019-05-19T04:31:50.800Z,14.37
2019-05-19T04:34:20.794Z,15.37
2019-05-19T04:36:50.917Z,13.13
2019-05-19T04:39:21.015Z,14.90
2019-05-19T04:41:51.077Z,12.73
2019-05-19T04:44:21.109Z,13.03
2019-05-19T04:46:51.242Z,15.93
2019-05-19T04:49:21.403Z,14.43
2019-05-19T04:52:05.495Z,14.23
2019-05-19T04:54:23.377Z,13.40
2019-05-19T04:56:53.542Z,15.40
2019-05-19T04:59:23.545Z,16.83
2019-05-19T05:01:53.633Z,16.97
2019-05-19T05:04:29.031Z,18.43
2019-05-19T05:06:55.903Z,16.80
2019-05-19T05:09:25.924Z,20.47
2019-05-19T05:11:56.076Z,19.37
2019-05-19T05:14:26.250Z,20.93
2019-05-19T05:16:56.367Z,21.20
2019-05-19T05:19:26.440Z,19.23
2019-05-19T05:21:56.635Z,20.67
2019-05-19T05:24:28.726Z,18.27
2019-05-19T05:26:58.627Z,18.67
2019-05-19T05:29:28.727Z,19.57
2019-05-19T05:31:58.924Z,21.80
2019-05-19T05:34:28.889Z,20.13
2019-05-19T05:36:58.931Z,18.17
2019-05-19T05:39:29.059Z,21.17
2019-05-19T05:41:59.248Z,21.47
2019-05-19T05:44:29.433Z,20.93
2019-05-19T05:46:59.527Z,22.27
2019-05-19T05:49:29.645Z,26.67
2019-05-19T05:51:59.735Z,28.80
2019-05-19T05:54:29.866Z,27.30
2019-05-19T05:56:59.986Z,26.20
2019-05-19T05:59:30.026Z,29.13
2019-05-19T06:02:00.096Z,22.70
2019-05-19T06:04:30.140Z,22.00
2019-05-19T06:07:00.097Z,21.30
2019-05-19T06:09:30.220Z,19.33
2019-05-19T06:12:00.405Z,21.17
2019-05-19T06:14:30.505Z,20.07
2019-05-19T06:17:00.606Z,21.30
2019-05-19T06:19:30.589Z,21.23
2019-05-19T06:22:00.644Z,22.70
2019-05-19T06:24:30.662Z,19.57
2019-05-19T06:27:00.767Z,23.07
2019-05-19T06:29:30.789Z,19.43
2019-05-19T06:32:05.470Z,20.53
2019-05-19T06:34:35.654Z,20.27
2019-05-19T06:37:05.861Z,17.10
2019-05-19T06:39:35.997Z,15.53
2019-05-19T06:42:06.192Z,17.07
2019-05-19T06:44:36.322Z,20.33
2019-05-19T06:47:06.536Z,14.23
2019-05-19T06:49:36.576Z,16.37
2019-05-19T06:52:06.853Z,14.53
2019-05-19T06:54:36.831Z,16.70
2019-05-19T06:57:07.056Z,16.93
2019-05-19T06:59:37.313Z,15.13
2019-05-19T07:02:07.497Z,14.37
2019-05-19T07:04:37.617Z,12.93
2019-05-19T07:07:07.931Z,13.73
2019-05-19T07:09:38.130Z,13.57
2019-05-19T07:12:10.799Z,15.73
2019-05-19T07:14:40.002Z,15.73
2019-05-19T07:17:10.194Z,15.40
2019-05-19T07:19:40.325Z,16.20
2019-05-19T07:22:10.527Z,13.37
2019-05-19T07:24:40.604Z,15.10
2019-05-19T07:27:10.728Z,13.90
2019-05-19T07:29:40.967Z,15.97
2019-05-19T07:32:11.232Z,12.67
2019-05-19T07:34:41.407Z,13.28
2019-05-19T07:37:11.703Z,14.13
2019-05-19T07:39:41.808Z,12.82
2019-05-19T07:42:12.069Z,13.57
2019-05-19T07:44:45.206Z,11.10
2019-05-19T07:47:14.164Z,11.27
2019-05-19T07:49:44.354Z,10.97
2019-05-19T07:52:14.603Z,13.30
2019-05-19T07:54:44.817Z,13.20
2019-05-19T07:57:15.018Z,11.50
2019-05-19T07:59:45.114Z,14.03
2019-05-19T08:02:15.454Z,13.53
2019-05-19T08:04:45.996Z,15.48
2019-05-19T08:07:16.033Z,12.83
2019-05-19T08:09:46.147Z,13.90
2019-05-19T08:12:16.473Z,16.32
2019-05-19T08:14:46.665Z,14.35
2019-05-19T08:17:16.853Z,15.30
2019-05-19T08:19:47.045Z,15.17
2019-05-19T08:22:17.303Z,13.70
2019-05-19T08:24:47.472Z,14.10
2019-05-19T08:27:17.586Z,13.45
2019-05-19T08:29:47.961Z,13.22
2019-05-19T08:32:18.185Z,11.77
2019-05-19T08:34:48.404Z,11.75
2019-05-19T08:37:18.541Z,13.10
2019-05-19T08:39:48.740Z,13.35
2019-05-19T08:42:18.777Z,12.70
2019-05-19T08:44:49.049Z,12.50
2019-05-19T08:47:19.123Z,10.58
2019-05-19T08:49:49.260Z,10.90
2019-05-19T08:52:19.309Z,12.13
2019-05-19T08:54:49.358Z,8.30
2019-05-19T08:57:19.616Z,9.98
2019-05-19T08:59:49.543Z,9.80
2019-05-19T09:02:19.630Z,9.63
2019-05-19T09:04:49.819Z,8.18
2019-05-19T09:07:20.082Z,9.98
2019-05-19T09:09:50.254Z,8.50
2019-05-19T09:12:20.492Z,9.00
2019-05-19T09:14:50.636Z,8.40
2019-05-19T09:17:20.921Z,8.15
2019-05-19T09:19:51.046Z,7.53
2019-05-19T09:22:21.173Z,8.43
2019-05-19T09:24:51.208Z,6.60
2019-05-19T09:27:21.422Z,7.78
2019-05-19T09:29:51.521Z,6.45
2019-05-19T09:32:21.644Z,6.92
2019-05-19T09:34:51.688Z,7.83
2019-05-19T09:37:22.018Z,7.50
2019-05-19T09:39:52.102Z,8.33
2019-05-19T09:42:22.293Z,6.87
2019-05-19T09:44:52.465Z,6.47
2019-05-19T09:47:22.648Z,7.45
2019-05-19T09:49:52.768Z,7.80
2019-05-19T09:52:22.993Z,6.78
2019-05-19T09:54:53.226Z,6.37
2019-05-19T09:57:23.535Z,7.12
2019-05-19T09:59:53.847Z,7.45
2019-05-19T10:02:24.015Z,7.15
2019-05-19T10:04:54.237Z,8.05
2019-05-19T10:07:24.528Z,7.97
2019-05-19T10:10:07.823Z,8.45
2019-05-19T10:12:38.100Z,8.35
2019-05-19T10:15:09.034Z,7.67
2019-05-19T10:17:39.222Z,9.03
2019-05-19T10:20:11.805Z,8.63
2019-05-19T10:22:41.964Z,8.73
2019-05-19T10:25:22.310Z,7.43
2019-05-19T10:27:45.037Z,9.05
2019-05-19T10:30:17.095Z,8.13
2019-05-19T10:32:48.378Z,8.10
2019-05-19T10:35:18.715Z,7.45
2019-05-19T10:37:48.933Z,9.20
2019-05-19T10:40:19.657Z,9.20
2019-05-19T10:42:50.058Z,8.53
2019-05-19T10:45:20.474Z,9.08
2019-05-19T10:47:50.627Z,8.10
2019-05-19T10:50:20.912Z,7.87
2019-05-19T10:52:51.181Z,7.90
2019-05-19T10:55:35.164Z,8.13
2019-05-19T10:57:53.254Z,7.35
2019-05-19T11:00:23.494Z,8.88
2019-05-19T11:02:54.683Z,9.55
2019-05-19T11:05:24.858Z,7.90
2019-05-19T11:07:55.187Z,8.63
2019-05-19T11:10:28.011Z,9.18
2019-05-19T11:12:58.372Z,8.75
2019-05-19T11:15:28.696Z,8.93
2019-05-19T11:17:58.915Z,8.95
2019-05-19T11:20:29.284Z,8.30
2019-05-19T11:22:59.579Z,9.30
2019-05-19T11:25:34.011Z,10.58
2019-05-19T11:28:01.830Z,8.50
2019-05-19T11:30:32.136Z,8.08
2019-05-19T11:33:02.390Z,8.13
2019-05-19T11:35:32.668Z,8.55
2019-05-19T11:38:02.876Z,7.08
2019-05-19T11:40:33.088Z,6.75
2019-05-19T11:43:04.399Z,7.30
2019-05-19T11:45:34.767Z,7.60
2019-05-19T11:48:05.132Z,7.08
2019-05-19T11:50:35.432Z,6.85
2019-05-19T11:53:06.729Z,7.15
2019-05-19T11:55:37.017Z,7.80
2019-05-19T11:58:07.286Z,6.28
2019-05-19T12:00:37.730Z,6.12
2019-05-19T12:03:08.092Z,6.50
2019-05-19T12:05:39.356Z,5.45
2019-05-19T12:08:09.712Z,5.83
2019-05-19T12:10:40.052Z,8.20
2019-05-19T12:13:10.337Z,7.67
2019-05-19T12:15:40.597Z,7.40
2019-05-19T12:18:10.862Z,6.70
2019-05-19T12:20:41.101Z,6.45
2019-05-19T12:23:11.421Z,6.12
2019-05-19T12:25:41.618Z,6.30
2019-05-19T12:28:11.767Z,6.30
2019-05-19T12:30:42.022Z,5.80
2019-05-19T12:33:12.366Z,5.22
2019-05-19T12:35:42.616Z,5.42
2019-05-19T12:38:12.743Z,4.80
2019-05-19T12:40:43.365Z,5.08
2019-05-19T12:43:13.678Z,4.70
2019-05-19T12:45:44.150Z,5.67
2019-05-19T12:48:14.470Z,5.25
2019-05-19T12:50:44.698Z,5.28
2019-05-19T12:53:14.893Z,5.30
2019-05-19T12:55:45.223Z,7.25
2019-05-19T12:58:15.490Z,5.92
2019-05-19T13:00:45.819Z,6.20
2019-05-19T13:03:16.106Z,7.08
2019-05-19T13:05:46.377Z,5.20
2019-05-19T13:08:16.639Z,5.00
2019-05-19T13:10:46.890Z,5.53
2019-05-19T13:13:17.168Z,4.87
2019-05-19T13:15:47.387Z,5.97
2019-05-19T13:18:17.587Z,5.97
2019-05-19T13:20:47.810Z,6.75
2019-05-19T13:23:17.965Z,6.50
2019-05-19T13:25:48.080Z,9.30
2019-05-19T13:28:18.287Z,7.35
2019-05-19T13:30:48.424Z,10.85
2019-05-19T13:33:18.688Z,9.15
2019-05-19T13:35:48.792Z,13.00
2019-05-19T13:38:18.950Z,5.33
2019-05-19T13:40:49.034Z,5.03
2019-05-19T13:43:19.254Z,4.67
2019-05-19T13:45:49.354Z,5.05
2019-05-19T13:48:19.628Z,5.85
2019-05-19T13:50:49.742Z,5.62
2019-05-19T13:53:19.923Z,5.30
2019-05-19T13:55:50.095Z,5.87
2019-05-19T13:58:20.271Z,5.30
2019-05-19T14:00:50.355Z,3.12
2019-05-19T14:03:20.613Z,4.67
2019-05-19T14:05:50.900Z,2.60
2019-05-19T14:08:20.975Z,2.95
2019-05-19T14:10:51.223Z,2.22
2019-05-19T14:13:21.306Z,5.33
2019-05-19T14:15:51.469Z,4.95
2019-05-19T14:18:21.616Z,3.37
2019-05-19T14:20:51.819Z,4.05
2019-05-19T14:23:22.026Z,5.78
2019-05-19T14:25:52.122Z,6.28
2019-05-19T14:28:22.188Z,6.87
2019-05-19T14:30:52.306Z,6.87
2019-05-19T14:33:22.593Z,7.92
2019-05-19T14:35:52.724Z,7.90
2019-05-19T14:38:22.865Z,6.15
2019-05-19T14:40:52.904Z,4.50
2019-05-19T14:43:23.395Z,4.45
2019-05-19T14:45:53.755Z,3.40
2019-05-19T14:48:23.827Z,3.40
2019-05-19T14:50:53.935Z,4.28
2019-05-19T14:53:23.922Z,4.55
2019-05-19T14:55:53.930Z,3.33
2019-05-19T14:58:24.063Z,5.83
2019-05-19T15:00:54.088Z,4.42
2019-05-19T15:03:24.348Z,3.77
2019-05-19T15:05:54.517Z,3.25
2019-05-19T15:08:24.672Z,3.50
2019-05-19T15:10:54.882Z,6.50
2019-05-19T15:13:24.997Z,2.90
2019-05-19T15:15:58.010Z,3.47
2019-05-19T15:18:27.091Z,3.65
2019-05-19T15:20:57.308Z,3.77
2019-05-19T15:23:27.319Z,4.65
2019-05-19T15:25:57.425Z,3.83
2019-05-19T15:28:27.494Z,3.33
2019-05-19T15:30:57.601Z,4.35
2019-05-19T15:33:27.802Z,3.50
2019-05-19T15:35:57.769Z,2.92
2019-05-19T15:38:27.868Z,2.45
2019-05-19T15:40:57.889Z,2.85
2019-05-19T15:43:28.081Z,8.48
2019-05-19T15:45:58.173Z,2.40
2019-05-19T15:48:28.320Z,2.58
2019-05-19T15:50:58.399Z,2.50
2019-05-19T15:53:28.628Z,2.03
2019-05-19T15:55:58.808Z,2.90
2019-05-19T15:58:28.982Z,2.62
2019-05-19T16:00:59.191Z,3.22
2019-05-19T16:03:29.302Z,3.00
2019-05-19T16:05:59.418Z,3.00
2019-05-19T16:08:29.480Z,3.50
2019-05-19T16:10:59.490Z,3.58
2019-05-19T16:13:29.588Z,4.70
2019-05-19T16:15:59.757Z,3.37
2019-05-19T16:18:29.940Z,3.75
2019-05-19T16:21:00.103Z,2.80
2019-05-19T16:23:30.513Z,3.10
2019-05-19T16:26:00.842Z,3.00
2019-05-19T16:28:31.270Z,3.77
2019-05-19T16:31:01.359Z,3.12
2019-05-19T16:33:31.492Z,5.47
2019-05-19T16:36:01.718Z,2.50
2019-05-19T16:38:31.903Z,3.67
2019-05-19T16:41:02.091Z,2.60
2019-05-19T16:43:32.311Z,2.98
2019-05-19T16:46:02.562Z,3.12
2019-05-19T16:48:32.740Z,2.77
2019-05-19T16:51:02.901Z,3.27
2019-05-19T16:53:32.962Z,3.75
2019-05-19T16:56:03.987Z,5.20
2019-05-19T16:58:44.878Z,3.75
2019-05-19T17:01:05.942Z,4.72
2019-05-19T17:03:36.187Z,3.55
2019-05-19T17:06:06.292Z,5.08
2019-05-19T17:08:36.511Z,4.30
2019-05-19T17:11:18.025Z,4.12
2019-05-19T17:13:38.510Z,3.60
2019-05-19T17:16:08.683Z,5.72
2019-05-19T17:18:38.759Z,4.83
2019-05-19T17:21:08.945Z,3.50
2019-05-19T17:23:39.183Z,5.12
2019-05-19T17:26:09.326Z,4.50
2019-05-19T17:28:39.517Z,3.70
2019-05-19T17:31:09.610Z,4.28
2019-05-19T17:33:39.609Z,5.67
2019-05-19T17:36:10.040Z,4.28
2019-05-19T17:38:40.130Z,4.20
2019-05-19T17:41:10.311Z,3.47
2019-05-19T17:43:40.339Z,4.20
2019-05-19T17:46:10.527Z,3.50
2019-05-19T17:48:40.471Z,3.90
2019-05-19T17:51:10.594Z,3.60
2019-05-19T17:53:40.759Z,3.67
2019-05-19T17:56:10.926Z,4.72
2019-05-19T17:58:41.505Z,3.98
2019-05-19T18:01:12.199Z,3.95
2019-05-19T18:03:45.610Z,4.03
2019-05-19T18:06:22.521Z,4.35
2019-05-19T18:08:52.593Z,5.05
2019-05-19T18:11:22.530Z,6.03
2019-05-19T18:13:52.692Z,3.95
2019-05-19T18:16:22.962Z,4.30
2019-05-19T18:18:53.050Z,4.28
2019-05-19T18:21:23.161Z,4.53
2019-05-19T18:23:53.320Z,6.10
2019-05-19T18:26:23.603Z,4.72
2019-05-19T18:28:53.639Z,5.80
2019-05-19T18:31:23.707Z,4.62
2019-05-19T18:33:53.674Z,5.42
2019-05-19T18:36:23.706Z,5.33
2019-05-19T18:38:53.805Z,5.53
2019-05-19T18:41:23.898Z,4.28
2019-05-19T18:43:53.942Z,4.83
2019-05-19T18:46:24.041Z,5.40
2019-05-19T18:48:54.076Z,5.12
2019-05-19T18:51:24.258Z,4.37
2019-05-19T18:53:54.273Z,4.33
2019-05-19T18:56:24.410Z,5.53
2019-05-19T18:58:54.510Z,6.12
2019-05-19T19:01:24.747Z,5.35
2019-05-19T19:03:54.907Z,4.92
2019-05-19T19:06:29.179Z,5.65
2019-05-19T19:08:59.185Z,5.30
2019-05-19T19:11:29.381Z,6.12
2019-05-19T19:13:59.492Z,6.47
2019-05-19T19:16:29.702Z,5.40
2019-05-19T19:18:59.728Z,5.08
2019-05-19T19:21:30.039Z,5.72
2019-05-19T19:24:00.144Z,7.10
2019-05-19T19:26:30.189Z,5.67
2019-05-19T19:29:00.371Z,5.70
2019-05-19T19:31:30.490Z,5.45
2019-05-19T19:34:00.458Z,5.25
2019-05-19T19:36:30.569Z,5.90
2019-05-19T19:39:00.712Z,5.70
2019-05-19T19:41:30.932Z,5.90
2019-05-19T19:44:00.898Z,6.50
2019-05-19T19:46:31.123Z,7.15
2019-05-19T19:49:01.170Z,8.97
2019-05-19T19:51:31.219Z,6.00
2019-05-19T19:54:01.485Z,5.90
2019-05-19T19:56:31.582Z,6.17
2019-05-19T19:59:01.773Z,5.50
2019-05-19T20:01:31.872Z,4.62
2019-05-19T20:04:01.898Z,5.30
2019-05-19T20:06:32.195Z,7.33
2019-05-19T20:09:02.314Z,5.35
2019-05-19T20:11:32.367Z,6.07
2019-05-19T20:14:02.539Z,6.73
2019-05-19T20:16:32.846Z,5.47
2019-05-19T20:19:04.226Z,6.22
2019-05-19T20:21:34.496Z,5.67
2019-05-19T20:24:05.762Z,6.87
2019-05-19T20:26:36.005Z,6.50
2019-05-19T20:29:06.110Z,6.60
2019-05-19T20:31:36.354Z,5.70
2019-05-19T20:34:06.535Z,6.20
2019-05-19T20:36:36.707Z,6.95
2019-05-19T20:39:07.838Z,6.08
2019-05-19T20:41:38.014Z,7.05
2019-05-19T20:44:08.247Z,6.33
2019-05-19T20:46:38.454Z,7.60
2019-05-19T20:49:08.665Z,6.45
2019-05-19T20:51:38.802Z,6.83
2019-05-19T20:54:08.916Z,6.27
2019-05-19T20:56:39.130Z,7.83
2019-05-19T20:59:09.241Z,7.17
2019-05-19T21:01:39.349Z,6.30
2019-05-19T21:04:09.491Z,8.70
2019-05-19T21:06:39.559Z,6.77
2019-05-19T21:09:09.737Z,6.57
2019-05-19T21:11:39.840Z,6.90
2019-05-19T21:14:09.979Z,10.27
2019-05-19T21:16:40.100Z,6.67
2019-05-19T21:19:10.324Z,6.57
2019-05-19T21:21:40.361Z,6.93
2019-05-19T21:24:10.542Z,6.57
2019-05-19T21:26:40.619Z,6.73
2019-05-19T21:29:10.765Z,8.88
2019-05-19T21:31:40.758Z,5.57
2019-05-19T21:34:10.805Z,6.53
2019-05-19T21:36:40.935Z,6.60
2019-05-19T21:39:11.179Z,6.83
2019-05-19T21:41:41.316Z,7.55
2019-05-19T21:44:11.540Z,12.60
2019-05-19T21:46:41.705Z,7.23
2019-05-19T21:49:11.824Z,8.50
2019-05-19T21:51:42.051Z,6.37
2019-05-19T21:54:12.255Z,8.33
2019-05-19T21:56:43.539Z,6.53
2019-05-19T21:59:13.618Z,6.73
2019-05-19T22:01:43.777Z,7.10
2019-05-19T22:04:13.951Z,7.57
2019-05-19T22:06:48.170Z,8.23
2019-05-19T22:09:18.276Z,8.97
2019-05-19T22:11:48.477Z,10.63
2019-05-19T22:14:18.466Z,7.07
2019-05-19T22:16:48.597Z,8.13
2019-05-19T22:19:18.711Z,8.53
2019-05-19T22:21:48.778Z,7.77
2019-05-19T22:24:18.946Z,8.67
2019-05-19T22:26:49.105Z,8.27
2019-05-19T22:29:19.289Z,8.03
2019-05-19T22:31:49.581Z,7.80
2019-05-19T22:34:19.754Z,9.73
2019-05-19T22:36:50.031Z,7.70
2019-05-19T22:39:20.258Z,12.10
2019-05-19T22:41:50.503Z,8.23
2019-05-19T22:44:20.634Z,8.53
2019-05-19T22:46:50.731Z,8.53
2019-05-19T22:49:20.903Z,9.73
2019-05-19T22:51:51.135Z,10.10
2019-05-19T22:54:21.366Z,11.17
2019-05-19T22:56:51.585Z,8.63
2019-05-19T22:59:21.727Z,8.47
2019-05-19T23:01:52.297Z,9.23
2019-05-19T23:04:22.531Z,10.60
2019-05-19T23:06:52.768Z,10.00
2019-05-19T23:09:23.016Z,8.90
2019-05-19T23:11:53.268Z,8.53
2019-05-19T23:14:23.374Z,8.93
2019-05-19T23:16:53.533Z,9.10
2019-05-19T23:19:23.662Z,9.43
2019-05-19T23:21:53.864Z,7.23
2019-05-19T23:24:24.121Z,10.40
2019-05-19T23:26:54.326Z,10.00
2019-05-19T23:29:24.513Z,7.53
2019-05-19T23:32:06.387Z,10.20
2019-05-19T23:34:26.590Z,11.57
2019-05-19T23:36:56.718Z,12.07
2019-05-19T23:39:26.815Z,11.67
2019-05-19T23:41:57.086Z,10.90
2019-05-19T23:44:27.205Z,10.30
2019-05-19T23:46:57.402Z,11.33
2019-05-19T23:49:27.522Z,11.10
2019-05-19T23:51:57.736Z,10.03
2019-05-19T23:54:27.948Z,10.80
2019-05-19T23:56:58.188Z,10.40
2019-05-19T23:59:28.370Z,11.97
